createdAt,value
2018-01-29T00:01:23.754Z,67.28
2018-01-29T00:03:51.289Z,67.22
2018-01-29T00:06:18.912Z,67.02
2018-01-29T00:08:46.447Z,66.87
2018-01-29T00:11:14.065Z,67.06
2018-01-29T00:13:41.601Z,66.81
2018-01-29T00:16:09.120Z,67.13
2018-01-29T00:18:36.802Z,66.85
2018-01-29T00:21:04.341Z,66.79
2018-01-29T00:23:31.850Z,66.77
2018-01-29T00:25:59.369Z,66.68
2018-01-29T00:28:26.896Z,66.79
2018-01-29T00:30:54.482Z,66.90
2018-01-29T00:33:22.052Z,66.64
2018-01-29T00:35:49.752Z,66.79
2018-01-29T00:38:17.286Z,66.56
2018-01-29T00:40:44.812Z,66.71
2018-01-29T00:43:12.460Z,66.43
2018-01-29T00:45:40.023Z,66.48
2018-01-29T00:48:08.529Z,66.53
2018-01-29T00:50:36.038Z,66.54
2018-01-29T00:53:03.571Z,66.59
2018-01-29T00:55:31.077Z,66.50
2018-01-29T00:57:58.601Z,66.60
2018-01-29T01:00:26.623Z,66.64
2018-01-29T01:02:54.124Z,66.64
2018-01-29T01:05:21.653Z,66.64
2018-01-29T01:07:49.176Z,66.70
2018-01-29T01:10:16.701Z,66.68
2018-01-29T01:12:44.340Z,66.73
2018-01-29T01:15:11.870Z,66.72
2018-01-29T01:17:39.364Z,66.76
2018-01-29T01:20:06.869Z,66.76
2018-01-29T01:22:34.382Z,66.77
2018-01-29T01:25:02.052Z,66.91
2018-01-29T01:27:29.597Z,67.02
2018-01-29T01:29:57.104Z,67.07
2018-01-29T01:32:24.615Z,66.97
2018-01-29T01:34:52.122Z,67.02
2018-01-29T01:37:19.796Z,67.08
2018-01-29T01:42:29.340Z,67.14
2018-01-29T01:44:56.870Z,67.34
2018-01-29T01:47:24.416Z,67.02
2018-01-29T01:49:51.957Z,67.22
2018-01-29T01:52:19.470Z,66.98
2018-01-29T01:54:47.115Z,67.07
2018-01-29T01:57:14.642Z,67.16
2018-01-29T01:59:42.159Z,66.97
2018-01-29T02:02:09.693Z,67.02
2018-01-29T02:04:37.219Z,66.97
2018-01-29T02:07:04.869Z,66.90
2018-01-29T02:09:32.402Z,66.90
2018-01-29T02:11:59.937Z,67.04
2018-01-29T02:14:28.249Z,66.85
2018-01-29T02:16:55.744Z,66.79
2018-01-29T02:19:23.381Z,66.81
2018-01-29T02:21:50.912Z,66.87
2018-01-29T02:24:18.424Z,67.00
2018-01-29T02:26:45.965Z,67.03
2018-01-29T02:29:13.528Z,66.92
2018-01-29T02:31:41.046Z,66.67
2018-01-29T02:34:08.570Z,66.84
2018-01-29T02:36:36.261Z,66.90
2018-01-29T02:39:03.816Z,66.79
2018-01-29T02:41:31.332Z,66.89
2018-01-29T02:43:58.894Z,66.87
2018-01-29T02:46:26.440Z,66.92
2018-01-29T02:48:54.138Z,67.09
2018-01-29T02:51:21.671Z,67.12
2018-01-29T02:53:49.255Z,67.22
2018-01-29T02:56:16.810Z,67.32
2018-01-29T02:58:44.325Z,67.44
2018-01-29T03:01:11.844Z,67.58
2018-01-29T03:03:39.378Z,67.46
2018-01-29T03:06:07.048Z,67.55
2018-01-29T03:08:34.560Z,67.56
2018-01-29T03:11:02.095Z,67.68
2018-01-29T03:13:29.618Z,67.67
2018-01-29T03:15:57.151Z,67.58
2018-01-29T03:18:24.802Z,67.77
2018-01-29T03:20:52.308Z,67.62
2018-01-29T03:23:19.836Z,67.71
2018-01-29T03:25:47.349Z,67.67
2018-01-29T03:28:14.887Z,67.60
2018-01-29T03:30:42.405Z,67.61
2018-01-29T03:33:09.924Z,67.59
2018-01-29T03:35:37.561Z,67.52
2018-01-29T03:38:05.071Z,67.60
2018-01-29T03:40:32.592Z,67.54
2018-01-29T03:43:00.098Z,67.49
2018-01-29T03:45:27.604Z,67.38
2018-01-29T03:47:55.261Z,67.45
2018-01-29T03:50:22.781Z,67.39
2018-01-29T03:52:50.314Z,67.44
2018-01-29T03:55:17.836Z,67.45
2018-01-29T03:57:45.348Z,67.50
2018-01-29T04:00:13.029Z,67.44
2018-01-29T04:02:40.607Z,67.37
2018-01-29T04:05:08.097Z,67.32
2018-01-29T04:07:35.624Z,67.33
2018-01-29T04:10:03.133Z,67.33
2018-01-29T04:12:30.791Z,67.38
2018-01-29T04:14:58.301Z,67.17
2018-01-29T04:17:25.818Z,67.26
2018-01-29T04:19:53.413Z,67.33
2018-01-29T04:22:20.950Z,67.43
2018-01-29T04:24:48.597Z,67.28
2018-01-29T04:27:16.116Z,67.23
2018-01-29T04:29:43.626Z,67.27
2018-01-29T04:32:11.137Z,67.08
2018-01-29T04:34:38.645Z,67.15
2018-01-29T04:37:06.277Z,67.06
2018-01-29T04:39:33.791Z,67.16
2018-01-29T04:42:21.061Z,67.15
2018-01-29T04:44:48.609Z,67.01
2018-01-29T04:47:16.129Z,67.11
2018-01-29T04:49:43.695Z,67.12
2018-01-29T04:52:11.221Z,67.05
2018-01-29T04:54:38.876Z,66.94
2018-01-29T04:57:06.417Z,67.04
2018-01-29T04:59:33.937Z,66.96
2018-01-29T05:02:01.496Z,66.86
2018-01-29T05:04:29.018Z,66.78
2018-01-29T05:06:56.660Z,66.95
2018-01-29T05:09:24.216Z,66.92
2018-01-29T05:11:51.732Z,66.85
2018-01-29T05:14:19.260Z,66.97
2018-01-29T05:16:46.776Z,66.99
2018-01-29T05:19:14.429Z,66.85
2018-01-29T05:21:41.940Z,66.94
2018-01-29T05:24:09.446Z,66.75
2018-01-29T05:26:36.968Z,66.88
2018-01-29T05:29:04.514Z,66.83
2018-01-29T05:31:36.964Z,66.74
2018-01-29T05:34:04.481Z,66.68
2018-01-29T19:49:00.828Z,43.05
2018-01-29T19:51:28.354Z,54.35
2018-01-29T19:53:56.016Z,57.45
2018-01-29T19:56:23.555Z,59.19
2018-01-29T19:58:51.090Z,59.70
2018-01-29T20:01:19.532Z,60.61
2018-01-29T20:03:47.840Z,61.97
2018-01-29T20:06:15.356Z,63.81
2018-01-29T20:08:42.886Z,63.16
2018-01-29T20:11:10.418Z,63.91
2018-01-29T20:13:38.064Z,63.89
2018-01-29T20:16:05.609Z,63.71
2018-01-29T20:18:33.146Z,64.16
2018-01-29T20:21:00.667Z,64.42
2018-01-29T20:23:28.184Z,64.74
2018-01-29T20:25:55.869Z,68.47
2018-01-29T20:28:23.511Z,65.78
2018-01-29T20:30:51.253Z,65.34
2018-01-29T20:33:18.794Z,65.53
2018-01-29T20:35:46.319Z,65.71
2018-01-29T20:38:13.856Z,65.66
2018-01-29T20:40:41.410Z,65.40
2018-01-29T20:43:09.072Z,65.55
2018-01-29T20:45:36.581Z,65.27
2018-01-29T20:48:04.109Z,65.51
2018-01-29T20:50:33.406Z,65.19
2018-01-29T20:53:00.950Z,65.20
2018-01-29T20:55:28.644Z,65.17
2018-01-29T20:57:56.215Z,65.35
2018-01-29T21:00:23.937Z,65.30
2018-01-29T21:02:51.469Z,64.86
2018-01-29T21:05:18.976Z,64.92
2018-01-29T21:07:46.541Z,65.05
2018-01-29T21:10:14.067Z,65.10
2018-01-29T21:12:41.708Z,65.04
2018-01-29T21:15:09.399Z,65.13
2018-01-29T21:17:36.970Z,65.11
2018-01-29T21:20:04.584Z,64.91
2018-01-29T21:22:32.121Z,65.18
2018-01-29T21:24:59.753Z,65.08
2018-01-29T21:27:27.273Z,65.25
2018-01-29T21:29:54.827Z,65.26
2018-01-29T21:32:22.337Z,65.12
2018-01-29T21:34:49.880Z,65.22
2018-01-29T21:37:17.525Z,65.15
2018-01-29T21:39:45.023Z,65.22
2018-01-29T21:42:12.538Z,65.25
2018-01-29T21:44:40.058Z,65.00
2018-01-29T21:47:07.574Z,65.03
2018-01-29T21:49:35.229Z,65.10
2018-01-29T21:52:02.788Z,65.18
2018-01-29T21:54:30.323Z,65.14
2018-01-29T21:56:57.867Z,65.02
2018-01-29T21:59:25.448Z,65.19
2018-01-29T22:01:53.158Z,65.02
2018-01-29T22:04:20.682Z,65.11
2018-01-29T22:06:51.020Z,65.05
2018-01-29T22:09:18.579Z,64.94
2018-01-29T22:11:46.090Z,64.99
2018-01-29T22:14:13.761Z,65.08
2018-01-29T22:16:41.280Z,65.02
2018-01-29T22:19:08.812Z,64.95
2018-01-29T22:21:36.356Z,64.98
2018-01-29T22:24:03.868Z,64.86
2018-01-29T22:26:31.504Z,64.94
2018-01-29T22:28:59.029Z,64.80
2018-01-29T22:31:26.702Z,64.85
2018-01-29T22:33:55.164Z,65.04
2018-01-29T22:36:22.720Z,65.02
2018-01-29T22:38:50.257Z,64.96
2018-01-29T22:41:17.791Z,64.83
2018-01-29T22:43:45.453Z,65.05
2018-01-29T22:46:12.991Z,64.88
2018-01-29T22:48:40.512Z,64.98
2018-01-29T22:51:08.025Z,64.83
2018-01-29T22:53:35.543Z,64.99
2018-01-29T22:56:03.203Z,64.98
2018-01-29T22:58:30.709Z,65.15
2018-01-29T23:00:58.397Z,65.22
2018-01-29T23:03:25.907Z,65.10
2018-01-29T23:05:53.428Z,65.20
2018-01-29T23:08:20.933Z,65.31
2018-01-29T23:10:48.512Z,65.26
2018-01-29T23:13:16.175Z,65.25
2018-01-29T23:15:43.688Z,65.28
2018-01-29T23:18:11.220Z,65.26
2018-01-29T23:20:38.766Z,65.35
2018-01-29T23:23:06.308Z,65.43
2018-01-29T23:25:33.983Z,65.33
2018-01-29T23:28:01.496Z,65.34
2018-01-29T23:30:29.242Z,65.31
2018-01-29T23:32:56.796Z,65.22
2018-01-29T23:35:24.328Z,65.38
2018-01-29T23:37:51.868Z,65.29
2018-01-29T23:40:19.386Z,65.22
2018-01-29T23:42:47.021Z,65.30
2018-01-29T23:45:14.567Z,65.41
2018-01-29T23:47:42.128Z,65.54
2018-01-29T23:50:09.663Z,65.42
2018-01-29T23:52:37.215Z,65.54
2018-01-29T23:55:04.891Z,65.69
2018-01-29T23:57:32.529Z,65.38
